createdAt,value
2022-12-11T08:21:47.019Z,95.22
2022-12-11T08:22:46.933Z,95.01
2022-12-11T08:23:46.886Z,94.80
2022-12-11T08:24:46.834Z,94.59
2022-12-11T08:25:46.797Z,94.90
2022-12-11T08:26:46.723Z,95.43
2022-12-11T08:27:46.646Z,95.22
2022-12-11T08:28:46.591Z,95.01
2022-12-11T08:29:46.527Z,94.44
2022-12-11T08:30:46.499Z,94.48
2022-12-11T08:31:46.386Z,94.48
2022-12-11T08:32:46.376Z,94.69
2022-12-11T08:33:46.289Z,94.90
2022-12-11T08:34:46.202Z,95.01
2022-12-11T08:35:46.147Z,94.59
2022-12-11T08:36:46.066Z,94.95
2022-12-11T08:37:46.034Z,95.43
2022-12-11T08:38:45.955Z,95.47
2022-12-11T08:39:45.897Z,95.37
2022-12-11T08:40:45.807Z,95.68
2022-12-11T08:41:45.748Z,96.00
2022-12-11T08:42:45.678Z,95.89
2022-12-11T08:43:45.617Z,95.47
2022-12-11T08:44:45.517Z,95.15
2022-12-11T08:45:45.508Z,95.05
2022-12-11T08:46:45.387Z,95.20
2022-12-11T08:47:45.317Z,95.15
2022-12-11T08:48:45.301Z,94.46
2022-12-11T08:49:45.169Z,94.53
2022-12-11T08:50:45.097Z,94.35
2022-12-11T08:51:45.038Z,93.83
2022-12-11T08:52:44.978Z,93.30
2022-12-11T08:53:44.886Z,93.83
2022-12-11T08:54:44.820Z,94.15
2022-12-11T08:55:44.750Z,94.46
2022-12-11T08:56:44.667Z,94.04
2022-12-11T08:57:44.600Z,93.83
2022-12-11T08:58:44.539Z,93.51
2022-12-11T08:59:44.468Z,93.83
2022-12-11T09:00:44.381Z,94.04
2022-12-11T09:01:44.338Z,93.83
2022-12-11T09:02:44.272Z,93.93
2022-12-11T09:03:44.150Z,94.04
2022-12-11T09:04:44.112Z,93.93
2022-12-11T09:05:44.000Z,93.93
2022-12-11T09:06:43.920Z,94.04
2022-12-11T09:07:43.923Z,94.25
2022-12-11T09:08:48.577Z,94.46
2022-12-11T09:09:44.721Z,93.73
2022-12-11T09:10:43.631Z,93.37
2022-12-11T09:11:43.541Z,93.47
2022-12-11T09:12:43.481Z,93.47
2022-12-11T09:13:43.392Z,93.41
2022-12-11T09:14:43.322Z,93.19
2022-12-11T09:15:43.260Z,93.37
2022-12-11T09:16:43.184Z,93.57
2022-12-11T09:17:43.092Z,93.37
2022-12-11T09:18:43.023Z,93.37
2022-12-11T09:19:42.944Z,93.47
2022-12-11T09:20:42.873Z,92.94
2022-12-11T09:21:42.783Z,93.15
2022-12-11T09:22:42.704Z,93.26
2022-12-11T09:23:42.622Z,93.37
2022-12-11T09:24:42.543Z,93.68
2022-12-11T09:25:42.482Z,93.15
2022-12-11T09:26:42.404Z,93.26
2022-12-11T09:27:42.324Z,93.68
2022-12-11T09:28:46.321Z,93.99
2022-12-11T09:29:42.164Z,93.99
2022-12-11T09:30:42.165Z,93.57
2022-12-11T09:31:42.017Z,93.05
2022-12-11T09:32:41.934Z,92.21
2022-12-11T09:33:41.841Z,92.31
2022-12-11T09:34:41.765Z,92.73
2022-12-11T09:35:41.694Z,93.05
2022-12-11T09:36:41.615Z,92.90
2022-12-11T09:37:41.523Z,92.84
2022-12-11T09:38:41.474Z,92.84
2022-12-11T09:39:41.373Z,92.73
2022-12-11T09:40:41.306Z,92.90
2022-12-11T09:41:41.253Z,93.11
2022-12-11T09:42:41.127Z,93.43
2022-12-11T09:43:41.035Z,93.43
2022-12-11T09:44:40.979Z,93.01
2022-12-11T09:45:40.906Z,92.48
2022-12-11T09:46:40.902Z,92.27
2022-12-11T09:47:40.715Z,92.06
2022-12-11T09:48:40.648Z,91.96
2022-12-11T09:49:40.565Z,91.53
2022-12-11T09:50:40.474Z,90.58
2022-12-11T09:51:40.374Z,90.73
2022-12-11T09:52:40.288Z,90.94
2022-12-11T09:53:40.187Z,90.62
2022-12-11T09:54:40.113Z,90.52
2022-12-11T09:55:40.030Z,90.41
2022-12-11T09:56:39.947Z,90.41
2022-12-11T09:57:39.858Z,90.31
2022-12-11T09:58:39.777Z,90.14
2022-12-11T09:59:39.687Z,90.14
2022-12-11T10:00:39.609Z,90.67
2022-12-11T10:01:39.550Z,91.15
2022-12-11T10:02:39.514Z,91.78
2022-12-11T10:03:39.358Z,91.68
2022-12-11T10:04:39.309Z,91.47
2022-12-11T10:05:39.209Z,92.21
2022-12-11T10:06:39.128Z,91.99
2022-12-11T10:07:39.052Z,91.99
2022-12-11T10:08:38.989Z,91.47
2022-12-11T10:09:38.888Z,91.89
2022-12-11T10:10:38.828Z,91.57
2022-12-11T10:11:38.739Z,91.15
2022-12-11T10:12:38.678Z,91.19
2022-12-11T10:13:38.640Z,91.68
